sensor_id;sensor_type;location;lat;lon;timestamp;P1;durP1;ratioP1;P2;durP2;ratioP2
15398;SDS011;7797;51.428;6.756;2022-11-20T00:01:19;16.87;;;12.20;;
15398;SDS011;7797;51.428;6.756;2022-11-20T00:03:53;14.50;;;12.10;;
15398;SDS011;7797;51.428;6.756;2022-11-20T00:06:21;16.13;;;12.87;;
15398;SDS011;7797;51.428;6.756;2022-11-20T00:08:49;16.10;;;12.57;;
15398;SDS011;7797;51.428;6.756;2022-11-20T00:11:17;16.80;;;12.53;;
15398;SDS011;7797;51.428;6.756;2022-11-20T00:13:48;16.87;;;13.47;;
15398;SDS011;7797;51.428;6.756;2022-11-20T00:16:17;17.97;;;12.90;;
15398;SDS011;7797;51.428;6.756;2022-11-20T00:18:45;16.93;;;13.40;;
15398;SDS011;7797;51.428;6.756;2022-11-20T00:21:14;17.77;;;12.80;;
15398;SDS011;7797;51.428;6.756;2022-11-20T00:23:43;17.73;;;12.87;;
15398;SDS011;7797;51.428;6.756;2022-11-20T00:26:10;14.37;;;11.90;;
15398;SDS011;7797;51.428;6.756;2022-11-20T00:28:39;18.57;;;13.20;;
15398;SDS011;7797;51.428;6.756;2022-11-20T00:31:07;15.80;;;12.80;;
15398;SDS011;7797;51.428;6.756;2022-11-20T00:33:36;19.23;;;13.93;;
15398;SDS011;7797;51.428;6.756;2022-11-20T00:36:03;15.40;;;12.50;;
15398;SDS011;7797;51.428;6.756;2022-11-20T00:38:31;15.33;;;12.53;;
15398;SDS011;7797;51.428;6.756;2022-11-20T00:41:00;17.03;;;12.57;;
15398;SDS011;7797;51.428;6.756;2022-11-20T00:43:27;14.80;;;12.37;;
15398;SDS011;7797;51.428;6.756;2022-11-20T00:46:01;17.60;;;12.93;;
15398;SDS011;7797;51.428;6.756;2022-11-20T00:48:31;15.57;;;12.33;;
15398;SDS011;7797;51.428;6.756;2022-11-20T00:50:58;17.83;;;11.87;;
15398;SDS011;7797;51.428;6.756;2022-11-20T00:53:25;17.20;;;12.50;;
15398;SDS011;7797;51.428;6.756;2022-11-20T00:58:22;17.17;;;13.13;;
15398;SDS011;7797;51.428;6.756;2022-11-20T01:00:50;17.13;;;13.30;;
15398;SDS011;7797;51.428;6.756;2022-11-20T01:03:17;18.63;;;13.17;;
15398;SDS011;7797;51.428;6.756;2022-11-20T01:05:51;16.43;;;12.67;;
15398;SDS011;7797;51.428;6.756;2022-11-20T01:08:18;20.17;;;13.17;;
15398;SDS011;7797;51.428;6.756;2022-11-20T01:10:45;19.27;;;13.33;;
15398;SDS011;7797;51.428;6.756;2022-11-20T01:13:11;16.53;;;13.30;;
15398;SDS011;7797;51.428;6.756;2022-11-20T01:16:01;17.00;;;13.20;;
15398;SDS011;7797;51.428;6.756;2022-11-20T01:18:29;15.97;;;12.63;;
15398;SDS011;7797;51.428;6.756;2022-11-20T01:20:59;18.87;;;12.97;;
15398;SDS011;7797;51.428;6.756;2022-11-20T01:23:47;16.83;;;12.93;;
15398;SDS011;7797;51.428;6.756;2022-11-20T01:26:16;18.70;;;13.57;;
15398;SDS011;7797;51.428;6.756;2022-11-20T01:28:44;19.10;;;13.57;;
15398;SDS011;7797;51.428;6.756;2022-11-20T01:31:12;16.47;;;12.53;;
15398;SDS011;7797;51.428;6.756;2022-11-20T01:33:40;17.57;;;12.60;;
15398;SDS011;7797;51.428;6.756;2022-11-20T01:36:08;16.27;;;12.70;;
15398;SDS011;7797;51.428;6.756;2022-11-20T01:38:35;19.13;;;13.10;;
15398;SDS011;7797;51.428;6.756;2022-11-20T01:41:02;19.97;;;13.67;;
15398;SDS011;7797;51.428;6.756;2022-11-20T01:43:29;20.67;;;14.03;;
15398;SDS011;7797;51.428;6.756;2022-11-20T01:51:33;17.43;;;13.20;;
15398;SDS011;7797;51.428;6.756;2022-11-20T01:54:12;18.27;;;13.47;;
15398;SDS011;7797;51.428;6.756;2022-11-20T01:56:43;18.17;;;13.10;;
15398;SDS011;7797;51.428;6.756;2022-11-20T01:59:12;17.77;;;13.70;;
15398;SDS011;7797;51.428;6.756;2022-11-20T02:01:40;17.87;;;13.27;;
15398;SDS011;7797;51.428;6.756;2022-11-20T02:04:07;19.03;;;12.83;;
15398;SDS011;7797;51.428;6.756;2022-11-20T02:06:36;20.00;;;14.00;;
15398;SDS011;7797;51.428;6.756;2022-11-20T02:09:06;18.00;;;14.13;;
15398;SDS011;7797;51.428;6.756;2022-11-20T02:11:33;17.30;;;13.30;;
15398;SDS011;7797;51.428;6.756;2022-11-20T02:13:59;17.93;;;14.00;;
15398;SDS011;7797;51.428;6.756;2022-11-20T02:16:34;20.87;;;14.27;;
15398;SDS011;7797;51.428;6.756;2022-11-20T02:19:04;19.23;;;13.87;;
15398;SDS011;7797;51.428;6.756;2022-11-20T02:21:41;20.60;;;14.30;;
15398;SDS011;7797;51.428;6.756;2022-11-20T02:24:12;18.40;;;14.20;;
15398;SDS011;7797;51.428;6.756;2022-11-20T02:26:51;18.73;;;13.60;;
15398;SDS011;7797;51.428;6.756;2022-11-20T02:29:25;18.00;;;13.07;;
15398;SDS011;7797;51.428;6.756;2022-11-20T02:31:53;17.03;;;12.73;;
15398;SDS011;7797;51.428;6.756;2022-11-20T02:34:21;16.67;;;13.10;;
15398;SDS011;7797;51.428;6.756;2022-11-20T02:36:48;17.47;;;12.93;;
15398;SDS011;7797;51.428;6.756;2022-11-20T02:39:16;19.53;;;14.27;;
15398;SDS011;7797;51.428;6.756;2022-11-20T02:41:44;17.83;;;13.10;;
15398;SDS011;7797;51.428;6.756;2022-11-20T02:44:10;17.77;;;12.57;;
15398;SDS011;7797;51.428;6.756;2022-11-20T02:46:37;17.10;;;12.63;;
15398;SDS011;7797;51.428;6.756;2022-11-20T02:49:04;18.30;;;13.33;;
15398;SDS011;7797;51.428;6.756;2022-11-20T02:51:31;17.90;;;13.70;;
15398;SDS011;7797;51.428;6.756;2022-11-20T02:53:58;19.33;;;13.90;;
15398;SDS011;7797;51.428;6.756;2022-11-20T02:56:25;19.87;;;13.87;;
15398;SDS011;7797;51.428;6.756;2022-11-20T02:58:52;21.73;;;14.47;;
15398;SDS011;7797;51.428;6.756;2022-11-20T03:01:18;18.07;;;13.43;;
15398;SDS011;7797;51.428;6.756;2022-11-20T03:03:45;16.57;;;12.77;;
15398;SDS011;7797;51.428;6.756;2022-11-20T03:06:12;18.20;;;13.10;;
15398;SDS011;7797;51.428;6.756;2022-11-20T03:08:38;20.17;;;13.67;;
15398;SDS011;7797;51.428;6.756;2022-11-20T03:11:05;20.13;;;13.97;;
15398;SDS011;7797;51.428;6.756;2022-11-20T03:13:33;21.17;;;14.60;;
15398;SDS011;7797;51.428;6.756;2022-11-20T03:16:17;18.00;;;13.73;;
15398;SDS011;7797;51.428;6.756;2022-11-20T03:18:45;18.17;;;13.53;;
15398;SDS011;7797;51.428;6.756;2022-11-20T03:21:12;21.27;;;15.17;;
15398;SDS011;7797;51.428;6.756;2022-11-20T03:23:39;22.13;;;15.33;;
15398;SDS011;7797;51.428;6.756;2022-11-20T03:26:07;17.73;;;13.80;;
15398;SDS011;7797;51.428;6.756;2022-11-20T03:28:37;19.20;;;13.93;;
15398;SDS011;7797;51.428;6.756;2022-11-20T03:31:11;19.80;;;14.97;;
15398;SDS011;7797;51.428;6.756;2022-11-20T03:33:40;21.23;;;15.10;;
15398;SDS011;7797;51.428;6.756;2022-11-20T03:36:08;19.20;;;14.50;;
15398;SDS011;7797;51.428;6.756;2022-11-20T03:38:37;17.77;;;13.70;;
15398;SDS011;7797;51.428;6.756;2022-11-20T03:41:05;19.97;;;14.03;;
15398;SDS011;7797;51.428;6.756;2022-11-20T03:43:33;18.30;;;13.70;;
15398;SDS011;7797;51.428;6.756;2022-11-20T03:46:00;19.77;;;14.13;;
15398;SDS011;7797;51.428;6.756;2022-11-20T03:48:27;21.97;;;15.10;;
15398;SDS011;7797;51.428;6.756;2022-11-20T03:51:06;20.47;;;14.03;;
15398;SDS011;7797;51.428;6.756;2022-11-20T03:53:34;17.83;;;13.43;;
15398;SDS011;7797;51.428;6.756;2022-11-20T03:56:00;18.63;;;13.80;;
15398;SDS011;7797;51.428;6.756;2022-11-20T03:58:27;20.40;;;14.23;;
15398;SDS011;7797;51.428;6.756;2022-11-20T04:00:54;19.33;;;13.73;;
15398;SDS011;7797;51.428;6.756;2022-11-20T04:03:20;19.07;;;13.90;;
15398;SDS011;7797;51.428;6.756;2022-11-20T04:05:47;17.07;;;13.27;;
15398;SDS011;7797;51.428;6.756;2022-11-20T04:08:13;18.70;;;13.47;;
15398;SDS011;7797;51.428;6.756;2022-11-20T04:10:40;17.67;;;13.53;;
15398;SDS011;7797;51.428;6.756;2022-11-20T04:13:07;16.13;;;13.17;;
15398;SDS011;7797;51.428;6.756;2022-11-20T04:15:33;18.07;;;12.20;;
15398;SDS011;7797;51.428;6.756;2022-11-20T04:18:03;16.70;;;13.67;;
15398;SDS011;7797;51.428;6.756;2022-11-20T04:20:30;18.37;;;13.20;;
15398;SDS011;7797;51.428;6.756;2022-11-20T04:22:57;20.80;;;13.50;;
15398;SDS011;7797;51.428;6.756;2022-11-20T04:25:23;16.97;;;13.03;;
15398;SDS011;7797;51.428;6.756;2022-11-20T04:27:50;18.53;;;13.60;;
15398;SDS011;7797;51.428;6.756;2022-11-20T04:30:16;19.07;;;13.63;;
15398;SDS011;7797;51.428;6.756;2022-11-20T04:32:43;17.57;;;13.50;;
15398;SDS011;7797;51.428;6.756;2022-11-20T04:35:10;17.83;;;13.17;;
15398;SDS011;7797;51.428;6.756;2022-11-20T04:37:36;17.87;;;13.30;;
15398;SDS011;7797;51.428;6.756;2022-11-20T04:40:03;17.97;;;13.57;;
15398;SDS011;7797;51.428;6.756;2022-11-20T04:42:30;17.90;;;13.33;;
15398;SDS011;7797;51.428;6.756;2022-11-20T04:44:57;19.30;;;13.90;;
15398;SDS011;7797;51.428;6.756;2022-11-20T04:47:23;20.43;;;14.53;;
15398;SDS011;7797;51.428;6.756;2022-11-20T04:49:50;17.87;;;13.67;;
15398;SDS011;7797;51.428;6.756;2022-11-20T04:52:17;18.70;;;14.27;;
15398;SDS011;7797;51.428;6.756;2022-11-20T04:54:44;18.93;;;14.43;;
15398;SDS011;7797;51.428;6.756;2022-11-20T04:57:12;19.30;;;15.20;;
15398;SDS011;7797;51.428;6.756;2022-11-20T04:59:40;16.97;;;13.80;;
15398;SDS011;7797;51.428;6.756;2022-11-20T05:02:06;17.83;;;14.43;;
15398;SDS011;7797;51.428;6.756;2022-11-20T05:04:33;16.87;;;14.20;;
15398;SDS011;7797;51.428;6.756;2022-11-20T05:07:00;18.37;;;14.20;;
15398;SDS011;7797;51.428;6.756;2022-11-20T05:09:26;21.13;;;15.93;;
15398;SDS011;7797;51.428;6.756;2022-11-20T05:11:53;25.77;;;16.30;;
15398;SDS011;7797;51.428;6.756;2022-11-20T05:14:20;22.57;;;16.87;;
15398;SDS011;7797;51.428;6.756;2022-11-20T05:16:46;23.03;;;17.23;;
15398;SDS011;7797;51.428;6.756;2022-11-20T05:19:13;23.57;;;15.93;;
15398;SDS011;7797;51.428;6.756;2022-11-20T05:21:40;22.23;;;16.87;;
15398;SDS011;7797;51.428;6.756;2022-11-20T05:24:06;22.43;;;16.93;;
15398;SDS011;7797;51.428;6.756;2022-11-20T05:26:33;26.53;;;17.90;;
15398;SDS011;7797;51.428;6.756;2022-11-20T05:28:59;21.77;;;17.03;;
15398;SDS011;7797;51.428;6.756;2022-11-20T05:31:27;20.57;;;17.03;;
15398;SDS011;7797;51.428;6.756;2022-11-20T05:33:54;22.77;;;17.27;;
15398;SDS011;7797;51.428;6.756;2022-11-20T05:36:21;23.97;;;17.33;;
15398;SDS011;7797;51.428;6.756;2022-11-20T05:38:48;25.83;;;17.57;;
15398;SDS011;7797;51.428;6.756;2022-11-20T05:41:17;22.33;;;16.07;;
15398;SDS011;7797;51.428;6.756;2022-11-20T05:43:45;22.70;;;16.10;;
15398;SDS011;7797;51.428;6.756;2022-11-20T05:46:13;20.90;;;16.40;;
15398;SDS011;7797;51.428;6.756;2022-11-20T05:48:41;20.47;;;15.70;;
15398;SDS011;7797;51.428;6.756;2022-11-20T05:51:09;25.30;;;16.63;;
15398;SDS011;7797;51.428;6.756;2022-11-20T05:53:37;25.60;;;16.93;;
15398;SDS011;7797;51.428;6.756;2022-11-20T05:56:12;24.70;;;17.20;;
15398;SDS011;7797;51.428;6.756;2022-11-20T05:58:41;26.03;;;17.17;;
15398;SDS011;7797;51.428;6.756;2022-11-20T06:01:09;26.70;;;17.57;;
15398;SDS011;7797;51.428;6.756;2022-11-20T06:03:46;24.57;;;17.87;;
15398;SDS011;7797;51.428;6.756;2022-11-20T06:06:14;26.63;;;19.13;;
15398;SDS011;7797;51.428;6.756;2022-11-20T06:08:41;26.77;;;19.10;;
15398;SDS011;7797;51.428;6.756;2022-11-20T06:11:09;35.50;;;18.97;;
15398;SDS011;7797;51.428;6.756;2022-11-20T06:13:36;27.80;;;19.40;;
15398;SDS011;7797;51.428;6.756;2022-11-20T06:16:08;27.13;;;19.07;;
15398;SDS011;7797;51.428;6.756;2022-11-20T06:18:35;28.87;;;18.73;;
15398;SDS011;7797;51.428;6.756;2022-11-20T06:21:02;32.20;;;19.33;;
15398;SDS011;7797;51.428;6.756;2022-11-20T06:23:36;31.10;;;19.77;;
15398;SDS011;7797;51.428;6.756;2022-11-20T06:26:03;28.30;;;18.90;;
15398;SDS011;7797;51.428;6.756;2022-11-20T06:28:32;30.83;;;19.40;;
15398;SDS011;7797;51.428;6.756;2022-11-20T06:30:59;27.60;;;19.03;;
15398;SDS011;7797;51.428;6.756;2022-11-20T06:33:26;27.63;;;18.43;;
15398;SDS011;7797;51.428;6.756;2022-11-20T06:35:55;27.30;;;18.67;;
15398;SDS011;7797;51.428;6.756;2022-11-20T06:38:28;22.67;;;16.80;;
15398;SDS011;7797;51.428;6.756;2022-11-20T06:40:54;21.87;;;16.80;;
15398;SDS011;7797;51.428;6.756;2022-11-20T06:43:22;22.27;;;17.17;;
15398;SDS011;7797;51.428;6.756;2022-11-20T06:45:52;23.37;;;16.73;;
15398;SDS011;7797;51.428;6.756;2022-11-20T06:48:20;21.63;;;16.27;;
15398;SDS011;7797;51.428;6.756;2022-11-20T06:50:47;21.83;;;16.77;;
15398;SDS011;7797;51.428;6.756;2022-11-20T06:53:13;21.87;;;17.17;;
15398;SDS011;7797;51.428;6.756;2022-11-20T06:55:44;23.27;;;16.23;;
15398;SDS011;7797;51.428;6.756;2022-11-20T06:58:12;19.27;;;15.87;;
15398;SDS011;7797;51.428;6.756;2022-11-20T07:00:39;19.67;;;15.20;;
15398;SDS011;7797;51.428;6.756;2022-11-20T07:03:07;20.43;;;15.50;;
15398;SDS011;7797;51.428;6.756;2022-11-20T07:05:35;20.97;;;15.53;;
15398;SDS011;7797;51.428;6.756;2022-11-20T07:08:02;20.30;;;15.23;;
15398;SDS011;7797;51.428;6.756;2022-11-20T07:10:29;23.43;;;15.77;;
15398;SDS011;7797;51.428;6.756;2022-11-20T07:12:55;19.07;;;15.97;;
15398;SDS011;7797;51.428;6.756;2022-11-20T07:15:23;20.00;;;15.97;;
15398;SDS011;7797;51.428;6.756;2022-11-20T07:17:50;19.60;;;15.63;;
15398;SDS011;7797;51.428;6.756;2022-11-20T07:20:17;21.10;;;16.20;;
15398;SDS011;7797;51.428;6.756;2022-11-20T07:22:43;25.10;;;16.47;;
15398;SDS011;7797;51.428;6.756;2022-11-20T07:25:10;23.70;;;17.10;;
15398;SDS011;7797;51.428;6.756;2022-11-20T07:27:37;22.90;;;16.80;;
15398;SDS011;7797;51.428;6.756;2022-11-20T07:30:03;20.33;;;15.67;;
15398;SDS011;7797;51.428;6.756;2022-11-20T07:32:30;19.63;;;15.87;;
15398;SDS011;7797;51.428;6.756;2022-11-20T07:34:57;22.70;;;16.23;;
15398;SDS011;7797;51.428;6.756;2022-11-20T07:37:24;22.27;;;16.27;;
15398;SDS011;7797;51.428;6.756;2022-11-20T07:39:50;22.00;;;15.73;;
15398;SDS011;7797;51.428;6.756;2022-11-20T07:42:17;21.10;;;15.93;;
15398;SDS011;7797;51.428;6.756;2022-11-20T07:44:43;20.57;;;15.73;;
15398;SDS011;7797;51.428;6.756;2022-11-20T07:47:10;22.27;;;15.63;;
15398;SDS011;7797;51.428;6.756;2022-11-20T07:49:37;20.97;;;15.03;;
15398;SDS011;7797;51.428;6.756;2022-11-20T07:52:03;21.37;;;15.40;;
15398;SDS011;7797;51.428;6.756;2022-11-20T07:54:31;21.60;;;15.73;;
15398;SDS011;7797;51.428;6.756;2022-11-20T07:56:58;21.33;;;16.17;;
15398;SDS011;7797;51.428;6.756;2022-11-20T07:59:24;20.80;;;15.63;;
15398;SDS011;7797;51.428;6.756;2022-11-20T08:01:51;20.77;;;15.10;;
15398;SDS011;7797;51.428;6.756;2022-11-20T08:04:17;22.23;;;16.27;;
15398;SDS011;7797;51.428;6.756;2022-11-20T08:06:44;21.97;;;16.77;;
15398;SDS011;7797;51.428;6.756;2022-11-20T08:09:11;21.57;;;15.77;;
15398;SDS011;7797;51.428;6.756;2022-11-20T08:11:38;20.07;;;14.93;;
15398;SDS011;7797;51.428;6.756;2022-11-20T08:14:23;21.03;;;15.90;;
15398;SDS011;7797;51.428;6.756;2022-11-20T08:16:50;20.03;;;15.80;;
15398;SDS011;7797;51.428;6.756;2022-11-20T08:19:17;20.07;;;15.70;;
15398;SDS011;7797;51.428;6.756;2022-11-20T08:21:44;22.27;;;16.47;;
15398;SDS011;7797;51.428;6.756;2022-11-20T08:24:11;21.60;;;16.00;;
15398;SDS011;7797;51.428;6.756;2022-11-20T08:26:38;21.43;;;15.70;;
15398;SDS011;7797;51.428;6.756;2022-11-20T08:29:05;22.57;;;15.70;;
15398;SDS011;7797;51.428;6.756;2022-11-20T08:31:32;19.57;;;15.07;;
15398;SDS011;7797;51.428;6.756;2022-11-20T08:33:59;19.50;;;14.87;;
15398;SDS011;7797;51.428;6.756;2022-11-20T08:36:32;21.90;;;14.60;;
15398;SDS011;7797;51.428;6.756;2022-11-20T08:39:00;20.23;;;14.80;;
15398;SDS011;7797;51.428;6.756;2022-11-20T08:41:27;19.87;;;15.13;;
15398;SDS011;7797;51.428;6.756;2022-11-20T08:43:58;19.33;;;13.90;;
15398;SDS011;7797;51.428;6.756;2022-11-20T08:46:26;20.40;;;13.57;;
15398;SDS011;7797;51.428;6.756;2022-11-20T08:49:04;17.80;;;12.90;;
15398;SDS011;7797;51.428;6.756;2022-11-20T08:51:31;16.97;;;13.30;;
15398;SDS011;7797;51.428;6.756;2022-11-20T08:53:58;18.10;;;13.90;;
15398;SDS011;7797;51.428;6.756;2022-11-20T08:56:25;18.70;;;13.07;;
15398;SDS011;7797;51.428;6.756;2022-11-20T08:58:52;15.67;;;12.40;;
15398;SDS011;7797;51.428;6.756;2022-11-20T09:01:38;16.70;;;12.33;;
15398;SDS011;7797;51.428;6.756;2022-11-20T09:04:05;15.23;;;11.90;;
15398;SDS011;7797;51.428;6.756;2022-11-20T09:06:32;15.77;;;12.00;;
15398;SDS011;7797;51.428;6.756;2022-11-20T09:08:59;15.87;;;11.77;;
15398;SDS011;7797;51.428;6.756;2022-11-20T09:11:31;16.03;;;12.47;;
15398;SDS011;7797;51.428;6.756;2022-11-20T09:13:58;16.07;;;12.57;;
15398;SDS011;7797;51.428;6.756;2022-11-20T09:16:26;16.40;;;13.27;;
15398;SDS011;7797;51.428;6.756;2022-11-20T09:18:52;16.37;;;12.63;;
15398;SDS011;7797;51.428;6.756;2022-11-20T09:21:39;19.50;;;13.63;;
15398;SDS011;7797;51.428;6.756;2022-11-20T09:24:06;20.83;;;13.57;;
15398;SDS011;7797;51.428;6.756;2022-11-20T09:26:32;18.90;;;13.17;;
15398;SDS011;7797;51.428;6.756;2022-11-20T09:28:59;17.27;;;13.50;;
15398;SDS011;7797;51.428;6.756;2022-11-20T09:31:26;16.17;;;12.27;;
15398;SDS011;7797;51.428;6.756;2022-11-20T09:33:52;17.70;;;13.30;;
15398;SDS011;7797;51.428;6.756;2022-11-20T09:36:19;16.87;;;12.90;;
15398;SDS011;7797;51.428;6.756;2022-11-20T09:38:46;18.53;;;12.73;;
15398;SDS011;7797;51.428;6.756;2022-11-20T09:47:11;17.33;;;13.10;;
15398;SDS011;7797;51.428;6.756;2022-11-20T09:55:27;16.50;;;13.03;;
15398;SDS011;7797;51.428;6.756;2022-11-20T09:57:55;16.53;;;12.60;;
15398;SDS011;7797;51.428;6.756;2022-11-20T10:00:23;16.17;;;12.80;;
15398;SDS011;7797;51.428;6.756;2022-11-20T10:02:53;16.53;;;12.40;;
15398;SDS011;7797;51.428;6.756;2022-11-20T10:05:31;18.77;;;13.10;;
15398;SDS011;7797;51.428;6.756;2022-11-20T10:08:24;17.57;;;12.77;;
15398;SDS011;7797;51.428;6.756;2022-11-20T10:16:12;17.07;;;11.97;;
15398;SDS011;7797;51.428;6.756;2022-11-20T10:21:24;18.80;;;13.60;;
15398;SDS011;7797;51.428;6.756;2022-11-20T10:26:57;17.03;;;13.37;;
15398;SDS011;7797;51.428;6.756;2022-11-20T10:29:29;18.83;;;13.93;;
15398;SDS011;7797;51.428;6.756;2022-11-20T10:32:01;20.90;;;13.77;;
15398;SDS011;7797;51.428;6.756;2022-11-20T10:37:18;18.43;;;14.07;;
15398;SDS011;7797;51.428;6.756;2022-11-20T10:40:01;19.20;;;12.73;;
15398;SDS011;7797;51.428;6.756;2022-11-20T10:42:41;15.40;;;12.47;;
15398;SDS011;7797;51.428;6.756;2022-11-20T10:48:10;17.90;;;12.63;;
15398;SDS011;7797;51.428;6.756;2022-11-20T10:51:15;17.17;;;12.73;;
15398;SDS011;7797;51.428;6.756;2022-11-20T10:56:56;15.07;;;11.93;;
15398;SDS011;7797;51.428;6.756;2022-11-20T11:02:23;16.57;;;11.97;;
15398;SDS011;7797;51.428;6.756;2022-11-20T11:04:54;16.93;;;12.87;;
15398;SDS011;7797;51.428;6.756;2022-11-20T11:07:22;16.37;;;11.57;;
15398;SDS011;7797;51.428;6.756;2022-11-20T11:09:55;18.33;;;12.27;;
15398;SDS011;7797;51.428;6.756;2022-11-20T11:12:24;15.13;;;11.73;;
15398;SDS011;7797;51.428;6.756;2022-11-20T11:14:52;16.03;;;12.33;;
15398;SDS011;7797;51.428;6.756;2022-11-20T11:17:30;15.20;;;11.67;;
15398;SDS011;7797;51.428;6.756;2022-11-20T11:20:02;15.13;;;11.80;;
15398;SDS011;7797;51.428;6.756;2022-11-20T11:22:32;16.93;;;12.73;;
15398;SDS011;7797;51.428;6.756;2022-11-20T11:25:00;16.93;;;11.83;;
15398;SDS011;7797;51.428;6.756;2022-11-20T11:27:27;16.67;;;12.67;;
15398;SDS011;7797;51.428;6.756;2022-11-20T11:30:11;17.43;;;11.53;;
15398;SDS011;7797;51.428;6.756;2022-11-20T11:32:40;17.87;;;12.30;;
15398;SDS011;7797;51.428;6.756;2022-11-20T11:35:17;16.07;;;12.17;;
15398;SDS011;7797;51.428;6.756;2022-11-20T11:37:45;16.63;;;12.90;;
15398;SDS011;7797;51.428;6.756;2022-11-20T11:40:13;16.40;;;12.23;;
15398;SDS011;7797;51.428;6.756;2022-11-20T11:42:56;16.67;;;11.43;;
15398;SDS011;7797;51.428;6.756;2022-11-20T11:45:31;18.33;;;12.60;;
15398;SDS011;7797;51.428;6.756;2022-11-20T11:47:58;17.57;;;12.03;;
15398;SDS011;7797;51.428;6.756;2022-11-20T11:50:27;17.60;;;11.63;;
15398;SDS011;7797;51.428;6.756;2022-11-20T12:03:52;20.00;;;12.43;;
15398;SDS011;7797;51.428;6.756;2022-11-20T12:06:26;15.50;;;11.40;;
15398;SDS011;7797;51.428;6.756;2022-11-20T12:08:57;16.53;;;11.80;;
15398;SDS011;7797;51.428;6.756;2022-11-20T12:11:30;20.30;;;12.50;;
15398;SDS011;7797;51.428;6.756;2022-11-20T12:14:04;16.47;;;11.73;;
15398;SDS011;7797;51.428;6.756;2022-11-20T12:16:38;15.73;;;11.90;;
15398;SDS011;7797;51.428;6.756;2022-11-20T12:19:12;15.13;;;11.27;;
15398;SDS011;7797;51.428;6.756;2022-11-20T12:34:43;17.93;;;12.33;;
15398;SDS011;7797;51.428;6.756;2022-11-20T12:39:48;15.50;;;11.47;;
15398;SDS011;7797;51.428;6.756;2022-11-20T12:51:09;19.30;;;11.87;;
15398;SDS011;7797;51.428;6.756;2022-11-20T12:57:40;17.30;;;11.93;;
15398;SDS011;7797;51.428;6.756;2022-11-20T13:08:32;19.20;;;11.93;;
15398;SDS011;7797;51.428;6.756;2022-11-20T13:16:29;16.93;;;11.80;;
15398;SDS011;7797;51.428;6.756;2022-11-20T13:19:01;18.00;;;11.87;;
15398;SDS011;7797;51.428;6.756;2022-11-20T13:21:39;15.50;;;11.00;;
15398;SDS011;7797;51.428;6.756;2022-11-20T13:24:19;17.87;;;11.63;;
15398;SDS011;7797;51.428;6.756;2022-11-20T13:26:47;17.17;;;11.53;;
15398;SDS011;7797;51.428;6.756;2022-11-20T13:29:18;19.07;;;12.10;;
15398;SDS011;7797;51.428;6.756;2022-11-20T13:31:46;16.50;;;11.47;;
15398;SDS011;7797;51.428;6.756;2022-11-20T13:34:23;17.70;;;12.30;;
15398;SDS011;7797;51.428;6.756;2022-11-20T13:36:56;18.20;;;12.30;;
15398;SDS011;7797;51.428;6.756;2022-11-20T13:39:27;18.47;;;12.57;;
15398;SDS011;7797;51.428;6.756;2022-11-20T13:41:56;17.27;;;12.07;;
15398;SDS011;7797;51.428;6.756;2022-11-20T13:44:27;18.67;;;12.07;;
15398;SDS011;7797;51.428;6.756;2022-11-20T13:46:57;16.53;;;12.50;;
15398;SDS011;7797;51.428;6.756;2022-11-20T13:49:32;17.37;;;12.60;;
15398;SDS011;7797;51.428;6.756;2022-11-20T13:52:07;16.47;;;12.37;;
15398;SDS011;7797;51.428;6.756;2022-11-20T14:00:16;18.03;;;12.37;;
15398;SDS011;7797;51.428;6.756;2022-11-20T14:02:46;17.23;;;12.17;;
15398;SDS011;7797;51.428;6.756;2022-11-20T14:05:34;17.57;;;12.70;;
15398;SDS011;7797;51.428;6.756;2022-11-20T14:08:02;17.97;;;13.03;;
15398;SDS011;7797;51.428;6.756;2022-11-20T14:10:31;19.23;;;12.90;;
15398;SDS011;7797;51.428;6.756;2022-11-20T14:12:58;18.83;;;12.90;;
15398;SDS011;7797;51.428;6.756;2022-11-20T14:15:36;19.07;;;12.87;;
15398;SDS011;7797;51.428;6.756;2022-11-20T14:18:14;19.30;;;12.50;;
15398;SDS011;7797;51.428;6.756;2022-11-20T14:20:45;19.87;;;13.67;;
15398;SDS011;7797;51.428;6.756;2022-11-20T14:23:12;17.97;;;13.10;;
15398;SDS011;7797;51.428;6.756;2022-11-20T14:25:42;20.00;;;13.97;;
15398;SDS011;7797;51.428;6.756;2022-11-20T14:28:18;18.07;;;13.13;;
15398;SDS011;7797;51.428;6.756;2022-11-20T14:30:51;19.40;;;13.33;;
15398;SDS011;7797;51.428;6.756;2022-11-20T14:33:18;18.47;;;12.90;;
15398;SDS011;7797;51.428;6.756;2022-11-20T14:35:47;18.60;;;13.33;;
15398;SDS011;7797;51.428;6.756;2022-11-20T14:38:17;18.93;;;13.63;;
15398;SDS011;7797;51.428;6.756;2022-11-20T14:40:46;18.80;;;13.33;;
15398;SDS011;7797;51.428;6.756;2022-11-20T14:43:26;19.27;;;13.07;;
15398;SDS011;7797;51.428;6.756;2022-11-20T14:46:05;20.53;;;13.47;;
15398;SDS011;7797;51.428;6.756;2022-11-20T14:48:53;20.93;;;13.77;;
15398;SDS011;7797;51.428;6.756;2022-11-20T14:56:55;19.23;;;13.30;;
15398;SDS011;7797;51.428;6.756;2022-11-20T14:59:24;19.23;;;13.30;;
15398;SDS011;7797;51.428;6.756;2022-11-20T15:01:55;19.27;;;13.53;;
15398;SDS011;7797;51.428;6.756;2022-11-20T15:04:22;20.13;;;13.27;;
15398;SDS011;7797;51.428;6.756;2022-11-20T15:06:53;20.33;;;13.80;;
15398;SDS011;7797;51.428;6.756;2022-11-20T15:09:22;17.30;;;13.27;;
15398;SDS011;7797;51.428;6.756;2022-11-20T15:11:56;19.00;;;13.73;;
15398;SDS011;7797;51.428;6.756;2022-11-20T15:14:30;33.17;;;20.93;;
15398;SDS011;7797;51.428;6.756;2022-11-20T15:16:58;21.47;;;14.67;;
15398;SDS011;7797;51.428;6.756;2022-11-20T15:19:25;22.63;;;14.07;;
15398;SDS011;7797;51.428;6.756;2022-11-20T15:21:53;20.50;;;14.27;;
15398;SDS011;7797;51.428;6.756;2022-11-20T15:24:25;20.27;;;14.23;;
15398;SDS011;7797;51.428;6.756;2022-11-20T15:26:52;20.40;;;14.40;;
15398;SDS011;7797;51.428;6.756;2022-11-20T15:29:19;18.77;;;13.00;;
15398;SDS011;7797;51.428;6.756;2022-11-20T15:31:47;22.20;;;14.90;;
15398;SDS011;7797;51.428;6.756;2022-11-20T15:34:14;22.63;;;14.73;;
15398;SDS011;7797;51.428;6.756;2022-11-20T15:36:41;21.27;;;14.37;;
15398;SDS011;7797;51.428;6.756;2022-11-20T15:39:09;19.80;;;14.73;;
15398;SDS011;7797;51.428;6.756;2022-11-20T15:41:38;20.90;;;14.03;;
15398;SDS011;7797;51.428;6.756;2022-11-20T15:44:05;19.63;;;13.47;;
15398;SDS011;7797;51.428;6.756;2022-11-20T15:46:32;20.10;;;14.37;;
15398;SDS011;7797;51.428;6.756;2022-11-20T15:49:05;21.63;;;13.77;;
15398;SDS011;7797;51.428;6.756;2022-11-20T15:51:36;19.53;;;14.30;;
15398;SDS011;7797;51.428;6.756;2022-11-20T15:54:10;22.10;;;14.87;;
15398;SDS011;7797;51.428;6.756;2022-11-20T15:56:41;22.80;;;15.30;;
15398;SDS011;7797;51.428;6.756;2022-11-20T15:59:08;23.70;;;15.33;;
15398;SDS011;7797;51.428;6.756;2022-11-20T16:01:35;22.83;;;15.67;;
15398;SDS011;7797;51.428;6.756;2022-11-20T16:04:02;21.30;;;14.73;;
15398;SDS011;7797;51.428;6.756;2022-11-20T16:06:28;24.13;;;15.00;;
15398;SDS011;7797;51.428;6.756;2022-11-20T16:08:55;21.43;;;14.90;;
15398;SDS011;7797;51.428;6.756;2022-11-20T16:11:22;22.87;;;15.20;;
15398;SDS011;7797;51.428;6.756;2022-11-20T16:13:48;24.77;;;15.80;;
15398;SDS011;7797;51.428;6.756;2022-11-20T16:16:35;22.53;;;14.83;;
15398;SDS011;7797;51.428;6.756;2022-11-20T16:19:03;22.47;;;14.83;;
15398;SDS011;7797;51.428;6.756;2022-11-20T16:21:30;24.00;;;15.37;;
15398;SDS011;7797;51.428;6.756;2022-11-20T16:23:58;22.10;;;14.80;;
15398;SDS011;7797;51.428;6.756;2022-11-20T16:26:25;23.43;;;14.83;;
15398;SDS011;7797;51.428;6.756;2022-11-20T16:28:52;22.67;;;15.07;;
15398;SDS011;7797;51.428;6.756;2022-11-20T16:31:19;25.60;;;15.37;;
15398;SDS011;7797;51.428;6.756;2022-11-20T16:33:52;27.60;;;15.43;;